createdAt,value
2018-02-09T00:02:10.427Z,55.37
2018-02-09T00:04:37.876Z,57.03
2018-02-09T00:07:05.374Z,57.20
2018-02-09T00:09:32.953Z,58.62
2018-02-09T00:12:00.481Z,58.26
2018-02-09T00:14:28.027Z,58.06
2018-02-09T00:16:56.237Z,58.60
2018-02-09T00:19:23.908Z,57.57
2018-02-09T00:21:51.360Z,57.63
2018-02-09T00:24:18.820Z,58.53
2018-02-09T00:26:46.345Z,56.75
2018-02-09T00:29:13.930Z,57.23
2018-02-09T00:31:41.544Z,56.96
2018-02-09T00:34:09.005Z,55.85
2018-02-09T00:36:36.545Z,56.28
2018-02-09T00:39:04.023Z,56.52
2018-02-09T00:41:31.718Z,55.92
2018-02-09T00:43:59.993Z,56.91
2018-02-09T00:46:27.614Z,57.31
2018-02-09T00:48:55.089Z,56.87
2018-02-09T00:51:22.533Z,56.86
2018-02-09T00:53:50.483Z,56.69
2018-02-09T00:56:17.907Z,56.60
2018-02-09T00:58:45.523Z,56.37
2018-02-09T01:01:12.984Z,56.24
2018-02-09T01:03:40.441Z,56.06
2018-02-09T01:06:07.905Z,56.48
2018-02-09T01:08:35.352Z,56.47
2018-02-09T01:11:02.842Z,57.32
2018-02-09T01:13:30.509Z,59.51
2018-02-09T01:15:58.001Z,60.69
2018-02-09T01:18:25.797Z,58.63
2018-02-09T01:20:53.247Z,57.61
2018-02-09T01:23:20.760Z,57.02
2018-02-09T01:25:48.234Z,56.19
2018-02-09T01:28:15.657Z,57.31
2018-02-09T01:30:43.288Z,58.04
2018-02-09T01:33:10.735Z,60.10
2018-02-09T01:35:38.176Z,57.18
2018-02-09T01:38:05.633Z,56.48
2018-02-09T01:40:33.106Z,56.26
2018-02-09T01:43:00.902Z,56.88
2018-02-09T01:45:28.410Z,58.34
2018-02-09T01:47:55.841Z,57.06
2018-02-09T01:50:23.353Z,56.69
2018-02-09T01:52:50.800Z,56.60
2018-02-09T01:55:18.304Z,57.22
2018-02-09T01:57:45.815Z,57.85
2018-02-09T02:00:13.325Z,59.89
2018-02-09T02:02:40.824Z,57.56
2018-02-09T02:05:08.329Z,56.74
2018-02-09T02:07:35.786Z,57.23
2018-02-09T02:10:03.238Z,57.29
2018-02-09T02:12:30.737Z,56.16
2018-02-09T02:14:58.169Z,57.00
2018-02-09T02:17:25.612Z,56.66
2018-02-09T02:19:53.071Z,57.16
2018-02-09T02:22:20.626Z,56.66
2018-02-09T02:24:48.086Z,56.24
2018-02-09T02:27:15.531Z,56.88
2018-02-09T02:29:43.162Z,57.02
2018-02-09T02:32:10.632Z,56.85
2018-02-09T02:34:38.364Z,56.90
2018-02-09T02:37:05.838Z,56.69
2018-02-09T02:39:33.301Z,58.06
2018-02-09T02:42:00.939Z,57.12
2018-02-09T02:44:28.416Z,56.75
2018-02-09T02:46:55.855Z,58.20
2018-02-09T02:49:23.378Z,58.91
2018-02-09T02:51:50.812Z,57.42
2018-02-09T02:54:18.331Z,58.54
2018-02-09T02:56:45.757Z,58.94
2018-02-09T02:59:13.253Z,59.07
2018-02-09T03:01:40.696Z,57.34
2018-02-09T03:04:08.142Z,56.59
2018-02-09T03:06:35.563Z,57.08
2018-02-09T03:09:03.085Z,57.59
2018-02-09T03:11:30.501Z,58.74
2018-02-09T03:13:57.932Z,59.98
2018-02-09T03:16:25.377Z,60.97
2018-02-09T03:18:52.841Z,58.26
2018-02-09T03:21:20.289Z,58.49
2018-02-09T03:23:47.716Z,57.55
2018-02-09T03:26:15.171Z,59.45
2018-02-09T03:28:42.618Z,58.44
2018-02-09T03:31:10.064Z,58.07
2018-02-09T03:33:37.513Z,57.48
2018-02-09T03:36:05.121Z,57.21
2018-02-09T03:38:32.654Z,57.25
2018-02-09T03:41:00.621Z,59.10
2018-02-09T03:43:28.152Z,60.30
2018-02-09T03:45:55.610Z,60.22
2018-02-09T03:48:23.045Z,59.29
2018-02-09T03:50:50.517Z,59.43
2018-02-09T03:53:17.943Z,60.42
2018-02-09T03:55:45.370Z,59.91
2018-02-09T03:58:12.812Z,59.60
2018-02-09T04:00:40.266Z,59.62
2018-02-09T04:03:07.719Z,60.61
2018-02-09T04:05:35.149Z,60.31
2018-02-09T04:08:02.626Z,60.22
2018-02-09T04:10:30.867Z,60.23
2018-02-09T04:12:58.432Z,60.87
2018-02-09T04:15:25.854Z,60.30
2018-02-09T04:17:53.320Z,61.25
2018-02-09T04:20:20.769Z,60.59
2018-02-09T04:22:48.226Z,60.44
2018-02-09T04:25:15.665Z,59.91
2018-02-09T04:27:43.157Z,60.21
2018-02-09T04:30:10.604Z,59.54
2018-02-09T04:32:38.483Z,59.70
2018-02-09T04:35:05.946Z,60.05
2018-02-09T04:37:33.376Z,60.06
2018-02-09T04:40:00.945Z,59.80
2018-02-09T04:42:28.414Z,60.13
2018-02-09T04:44:55.849Z,60.99
2018-02-09T04:47:23.342Z,60.38
2018-02-09T04:49:50.834Z,59.54
2018-02-09T04:52:18.304Z,60.73
2018-02-09T04:54:45.790Z,60.46
2018-02-09T04:57:13.209Z,59.59
2018-02-09T04:59:40.658Z,58.94
2018-02-09T05:02:08.097Z,58.97
2018-02-09T05:04:35.553Z,58.90
2018-02-09T05:07:02.984Z,59.52
2018-02-09T05:09:31.349Z,60.46
2018-02-09T05:11:58.793Z,61.30
2018-02-09T05:14:26.236Z,59.67
2018-02-09T05:16:53.682Z,59.95
2018-02-09T05:19:21.132Z,59.50
2018-02-09T05:21:48.575Z,59.62
2018-02-09T05:24:15.993Z,60.22
2018-02-09T05:26:43.489Z,59.61
2018-02-09T05:29:10.908Z,59.99
2018-02-09T05:31:38.362Z,60.56
2018-02-09T05:34:05.833Z,60.39
2018-02-09T05:36:33.275Z,60.78
2018-02-09T05:39:01.206Z,61.01
2018-02-09T05:41:28.657Z,59.89
2018-02-09T05:43:56.182Z,60.13
2018-02-09T05:46:23.654Z,61.54
2018-02-09T05:48:51.088Z,60.39
2018-02-09T05:51:18.588Z,61.38
2018-02-09T05:53:46.134Z,61.18
2018-02-09T05:56:13.584Z,61.87
2018-02-09T05:58:41.017Z,63.37
2018-02-09T06:01:08.502Z,64.67
2018-02-09T06:03:35.936Z,64.07
2018-02-09T06:06:03.372Z,64.49
2018-02-09T06:08:31.534Z,63.85
2018-02-09T06:10:59.353Z,63.82
2018-02-09T06:13:26.809Z,64.37
2018-02-09T06:15:54.258Z,65.39
2018-02-09T06:18:21.711Z,64.50
2018-02-09T06:20:49.149Z,65.12
2018-02-09T06:23:16.592Z,65.56
2018-02-09T06:25:44.043Z,65.43
2018-02-09T06:28:11.529Z,64.71
2018-02-09T06:30:38.960Z,65.52
2018-02-09T06:33:06.458Z,64.48
2018-02-09T06:35:33.880Z,65.15
2018-02-09T06:38:01.382Z,64.47
2018-02-09T06:40:28.824Z,66.41
2018-02-09T06:42:56.274Z,66.42
2018-02-09T06:45:23.702Z,66.37
2018-02-09T06:47:51.124Z,65.35
2018-02-09T06:50:18.681Z,64.38
2018-02-09T06:52:46.262Z,64.88
2018-02-09T06:55:13.722Z,64.71
2018-02-09T06:57:46.726Z,64.21
2018-02-09T07:00:14.177Z,64.30
2018-02-09T07:02:41.650Z,65.45
2018-02-09T07:05:09.105Z,64.82
2018-02-09T07:07:36.531Z,66.89
2018-02-09T07:10:03.996Z,65.97
2018-02-09T07:12:31.552Z,65.66
2018-02-09T07:14:59.005Z,65.04
2018-02-09T07:17:26.523Z,65.67
2018-02-09T07:19:54.004Z,66.17
2018-02-09T07:22:21.631Z,66.18
2018-02-09T07:24:49.124Z,65.02
2018-02-09T07:27:16.546Z,65.12
2018-02-09T07:29:44.011Z,64.64
2018-02-09T07:32:11.477Z,63.89
2018-02-09T07:34:38.920Z,64.63
2018-02-09T07:37:06.416Z,65.65
2018-02-09T07:39:33.917Z,66.91
2018-02-09T07:42:05.722Z,66.34
2018-02-09T07:44:33.151Z,67.41
2018-02-09T07:47:00.596Z,65.80
2018-02-09T07:49:28.025Z,65.06
2018-02-09T07:51:55.488Z,64.80
2018-02-09T07:54:22.941Z,65.70
2018-02-09T07:56:51.229Z,66.75
2018-02-09T07:59:18.666Z,66.61
2018-02-09T08:01:46.108Z,66.08
2018-02-09T08:04:13.575Z,65.68
2018-02-09T08:06:41.017Z,65.39
2018-02-09T08:09:08.459Z,65.00
2018-02-09T08:11:35.984Z,64.96
2018-02-09T08:14:03.498Z,66.49
2018-02-09T08:16:31.761Z,66.05
2018-02-09T08:18:59.204Z,65.00
2018-02-09T08:21:26.660Z,66.84
2018-02-09T08:23:54.104Z,65.87
2018-02-09T08:26:21.615Z,66.62
2018-02-09T08:28:49.073Z,65.56
2018-02-09T08:31:16.569Z,64.29
2018-02-09T08:33:44.025Z,64.77
2018-02-09T08:36:11.461Z,64.26
2018-02-09T08:38:38.941Z,65.26
2018-02-09T08:41:06.368Z,66.08
2018-02-09T08:43:33.907Z,65.73
2018-02-09T08:46:01.880Z,66.37
2018-02-09T08:48:29.356Z,66.30
2018-02-09T08:50:56.785Z,65.49
2018-02-09T08:53:24.238Z,66.51
2018-02-09T08:55:51.690Z,66.54
2018-02-09T08:58:20.133Z,65.51
2018-02-09T09:00:47.706Z,66.14
2018-02-09T09:03:15.237Z,67.06
2018-02-09T09:05:42.676Z,67.92
2018-02-09T09:08:10.118Z,68.16
2018-02-09T09:10:37.556Z,68.02
2018-02-09T09:13:04.998Z,68.04
2018-02-09T09:15:37.258Z,68.28
2018-02-09T09:18:04.685Z,68.27
2018-02-09T09:20:32.241Z,68.01
2018-02-09T09:22:59.707Z,68.15
2018-02-09T09:25:27.174Z,68.03
2018-02-09T09:27:54.659Z,68.15
2018-02-09T09:30:22.209Z,68.56
2018-02-09T09:32:50.108Z,69.26
2018-02-09T09:35:17.573Z,68.90
2018-02-09T09:37:45.015Z,68.98
2018-02-09T09:40:12.529Z,68.20
2018-02-09T09:42:39.969Z,68.75
2018-02-09T09:45:07.487Z,68.79
2018-02-09T09:47:34.939Z,68.37
2018-02-09T09:50:02.390Z,65.95
2018-02-09T09:52:29.869Z,67.32
2018-02-09T09:54:57.312Z,67.63
2018-02-09T09:57:24.752Z,68.07
2018-02-09T09:59:52.192Z,69.11
2018-02-09T10:02:31.439Z,69.51
2018-02-09T10:04:58.859Z,68.43
2018-02-09T10:07:26.367Z,68.13
2018-02-09T10:09:53.835Z,68.08
2018-02-09T10:12:21.636Z,66.93
2018-02-09T10:14:49.081Z,66.78
2018-02-09T10:17:16.524Z,66.34
2018-02-09T10:19:43.958Z,65.66
2018-02-09T10:22:11.416Z,65.22
2018-02-09T10:24:38.849Z,65.49
2018-02-09T10:27:06.299Z,66.52
2018-02-09T10:29:33.800Z,65.89
2018-02-09T10:32:01.266Z,65.61
2018-02-09T10:34:28.700Z,66.05
2018-02-09T10:36:56.154Z,65.61
2018-02-09T10:39:23.620Z,65.05
2018-02-09T10:41:51.074Z,65.37
2018-02-09T10:44:18.529Z,64.85
2018-02-09T10:46:45.989Z,64.81
2018-02-09T10:49:13.432Z,65.14
2018-02-09T10:51:40.932Z,65.92
2018-02-09T10:54:08.456Z,64.67
2018-02-09T10:56:35.897Z,65.48
2018-02-09T10:59:03.347Z,65.13
2018-02-09T11:01:36.769Z,66.46
2018-02-09T11:04:04.222Z,66.35
2018-02-09T11:06:32.396Z,64.63
2018-02-09T11:08:59.855Z,65.21
2018-02-09T11:11:27.321Z,65.51
2018-02-09T11:13:54.762Z,66.97
2018-02-09T11:16:22.204Z,66.23
2018-02-09T11:18:49.662Z,67.32
2018-02-09T11:21:17.087Z,66.10
2018-02-09T11:23:44.535Z,65.54
2018-02-09T11:26:11.973Z,65.22
2018-02-09T11:28:39.416Z,65.13
2018-02-09T11:31:06.869Z,65.42
2018-02-09T11:33:34.326Z,66.18
2018-02-09T11:36:04.732Z,66.52
2018-02-09T11:38:32.612Z,65.97
2018-02-09T11:41:00.130Z,66.62
2018-02-09T11:43:27.618Z,65.90
2018-02-09T11:45:55.090Z,65.01
2018-02-09T11:48:22.545Z,66.96
2018-02-09T11:50:50.090Z,66.81
2018-02-09T11:53:17.537Z,66.67
2018-02-09T11:55:45.000Z,65.95
2018-02-09T11:58:12.459Z,65.82
2018-02-09T12:00:39.916Z,64.71
2018-02-09T12:03:07.417Z,64.66
2018-02-09T12:05:34.864Z,65.76
2018-02-09T12:08:02.520Z,65.67
2018-02-09T12:10:30.059Z,64.78
2018-02-09T12:12:57.525Z,65.40
2018-02-09T12:15:24.971Z,65.08
2018-02-09T12:17:52.433Z,65.11
2018-02-09T12:20:19.948Z,65.61
2018-02-09T12:22:47.403Z,64.34
2018-02-09T12:25:14.954Z,66.35
2018-02-09T12:27:42.458Z,66.32
2018-02-09T12:30:09.972Z,65.92
2018-02-09T12:32:38.046Z,65.18
2018-02-09T12:35:05.504Z,65.20
2018-02-09T12:37:33.004Z,65.38
2018-02-09T12:40:00.473Z,65.04
2018-02-09T12:42:27.944Z,64.96
2018-02-09T12:44:55.409Z,65.11
2018-02-09T12:47:22.866Z,64.96
2018-02-09T12:49:50.340Z,65.43
2018-02-09T12:52:17.775Z,66.19
2018-02-09T12:54:45.217Z,66.17
2018-02-09T12:57:12.721Z,67.17
2018-02-09T12:59:40.214Z,66.83
2018-02-09T13:02:07.716Z,66.71
2018-02-09T13:04:35.223Z,66.65
2018-02-09T13:07:02.933Z,67.00
2018-02-09T13:09:30.469Z,66.95
2018-02-09T13:11:57.916Z,66.75
2018-02-09T13:14:37.153Z,65.34
2018-02-09T13:17:04.588Z,66.55
2018-02-09T13:19:32.936Z,66.84
2018-02-09T13:22:00.372Z,66.91
2018-02-09T13:24:27.821Z,66.49
2018-02-09T13:26:55.253Z,66.31
2018-02-09T13:29:22.740Z,66.35
2018-02-09T13:31:50.171Z,66.04
2018-02-09T13:34:17.643Z,66.89
2018-02-09T13:50:25.730Z,66.14
2018-02-09T13:52:53.190Z,67.50
2018-02-09T13:55:20.644Z,66.73
2018-02-09T13:57:48.130Z,66.83
2018-02-09T14:00:15.571Z,66.75
2018-02-09T14:02:43.068Z,66.33
2018-02-09T14:05:10.496Z,67.25
2018-02-09T14:07:38.312Z,67.00
2018-02-09T14:10:05.779Z,67.16
2018-02-09T14:12:33.241Z,67.47
2018-02-09T14:15:00.676Z,67.70
2018-02-09T14:17:28.135Z,67.78
2018-02-09T14:19:55.585Z,67.29
2018-02-09T14:22:23.088Z,67.01
2018-02-09T14:24:50.526Z,65.52
2018-02-09T14:27:18.039Z,66.06
2018-02-09T14:29:45.519Z,65.70
2018-02-09T14:32:12.956Z,64.97
2018-02-09T14:34:40.398Z,65.27
2018-02-09T14:37:07.848Z,65.36
2018-02-09T14:39:35.295Z,66.62
2018-02-09T14:42:03.261Z,65.76
2018-02-09T14:44:30.712Z,65.62
2018-02-09T14:46:58.169Z,66.14
2018-02-09T14:49:25.739Z,65.45
2018-02-09T14:51:53.158Z,64.63
2018-02-09T14:54:20.619Z,65.74
2018-02-09T14:56:48.056Z,67.69
2018-02-09T14:59:15.531Z,67.57
2018-02-09T15:01:43.009Z,66.26
2018-02-09T15:04:10.464Z,67.20
2018-02-09T15:06:37.945Z,65.89
2018-02-09T15:09:05.384Z,66.58
2018-02-09T15:11:34.320Z,65.82
2018-02-09T15:14:01.745Z,65.77
2018-02-09T15:16:29.252Z,64.98
2018-02-09T15:18:56.713Z,65.03
2018-02-09T15:21:24.176Z,64.89
2018-02-09T15:23:51.642Z,64.72
2018-02-09T15:26:19.135Z,65.24
2018-02-09T15:28:46.588Z,65.14
2018-02-09T15:31:14.121Z,65.36
2018-02-09T15:33:41.572Z,64.94
2018-02-09T15:36:09.036Z,66.04
2018-02-09T15:38:36.474Z,65.84
2018-02-09T15:41:03.923Z,64.85
2018-02-09T15:43:31.370Z,65.30
2018-02-09T15:45:58.797Z,64.80
2018-02-09T15:48:26.259Z,65.49
2018-02-09T15:50:53.733Z,65.80
2018-02-09T15:53:21.186Z,65.55
2018-02-09T15:55:48.660Z,65.78
2018-02-09T15:58:16.108Z,65.17
2018-02-09T16:00:43.563Z,65.01
2018-02-09T16:03:11.079Z,65.33
2018-02-09T16:05:39.512Z,64.81
2018-02-09T16:08:06.986Z,65.86
2018-02-09T16:10:34.420Z,65.46
2018-02-09T16:13:01.888Z,66.55
2018-02-09T16:15:29.377Z,65.41
2018-02-09T16:17:56.822Z,65.53
2018-02-09T16:20:24.265Z,65.17
2018-02-09T16:22:51.774Z,64.67
2018-02-09T16:25:19.720Z,65.41
2018-02-09T16:27:53.466Z,65.43
2018-02-09T16:30:22.060Z,65.58
2018-02-09T16:32:49.610Z,64.60
2018-02-09T16:35:17.035Z,64.90
2018-02-09T16:37:44.466Z,64.48
2018-02-09T16:40:11.956Z,64.82
2018-02-09T16:42:39.453Z,64.68
2018-02-09T16:45:06.919Z,64.76
2018-02-09T16:47:34.465Z,65.00
2018-02-09T16:50:01.917Z,64.60
2018-02-09T16:52:29.350Z,64.41
2018-02-09T16:54:56.804Z,64.65
2018-02-09T16:57:24.329Z,65.03
2018-02-09T16:59:51.947Z,64.59
2018-02-09T17:02:19.600Z,64.65
2018-02-09T17:04:47.065Z,64.63
2018-02-09T17:07:14.508Z,64.89
2018-02-09T17:09:41.979Z,65.63
2018-02-09T17:12:09.443Z,65.86
2018-02-09T17:14:36.919Z,65.58
2018-02-09T17:17:04.431Z,65.83
2018-02-09T17:19:31.918Z,66.00
2018-02-09T17:21:59.379Z,66.18
2018-02-09T17:24:26.818Z,66.56
2018-02-09T17:26:54.736Z,65.51
2018-02-09T17:29:22.194Z,65.51
2018-02-09T17:31:49.671Z,65.38
2018-02-09T17:34:17.113Z,67.00
2018-02-09T17:36:44.711Z,66.94
2018-02-09T17:39:12.141Z,65.58
2018-02-09T17:41:39.656Z,66.33
2018-02-09T17:44:07.286Z,65.85
2018-02-09T17:46:34.806Z,65.93
2018-02-09T17:49:02.244Z,65.70
2018-02-09T17:51:29.791Z,65.88
2018-02-09T17:53:57.228Z,66.38
2018-02-09T17:56:24.693Z,65.80
2018-02-09T17:58:52.152Z,65.22
2018-02-09T18:01:19.803Z,66.27
2018-02-09T18:03:47.257Z,66.10
2018-02-09T18:06:14.730Z,66.55
2018-02-09T18:08:42.184Z,66.42
2018-02-09T18:11:09.644Z,66.10
2018-02-09T18:13:40.889Z,67.02
2018-02-09T18:16:10.374Z,66.63
2018-02-09T18:18:38.047Z,66.20
2018-02-09T18:21:05.614Z,65.32
2018-02-09T18:23:33.121Z,65.68
2018-02-09T18:26:00.610Z,66.58
2018-02-09T18:28:28.118Z,64.96
2018-02-09T18:30:55.668Z,65.20
2018-02-09T18:33:23.133Z,65.55
2018-02-09T18:35:50.557Z,66.07
2018-02-09T18:38:18.033Z,65.35
2018-02-09T18:40:45.476Z,66.13
2018-02-09T18:43:13.028Z,65.69
2018-02-09T18:45:40.452Z,65.57
2018-02-09T18:48:07.876Z,65.76
2018-02-09T18:50:35.600Z,65.83
2018-02-09T18:53:03.048Z,65.11
2018-02-09T18:55:30.498Z,65.57
2018-02-09T18:57:58.067Z,65.92
2018-02-09T19:00:25.521Z,66.07
2018-02-09T19:02:52.970Z,67.16
2018-02-09T19:05:20.486Z,66.97
2018-02-09T19:07:47.956Z,67.27
2018-02-09T19:10:15.439Z,66.57
2018-02-09T19:12:42.876Z,66.22
2018-02-09T19:15:10.337Z,66.81
2018-02-09T19:17:37.778Z,65.85
2018-02-09T19:20:05.372Z,65.69
2018-02-09T19:22:32.800Z,65.80
2018-02-09T19:25:00.366Z,66.17
2018-02-09T19:27:27.803Z,65.01
2018-02-09T19:29:55.337Z,65.78
2018-02-09T19:32:23.301Z,65.69
2018-02-09T19:34:50.757Z,65.91
2018-02-09T19:37:18.215Z,65.54
2018-02-09T19:39:45.696Z,65.51
2018-02-09T19:42:13.133Z,66.07
2018-02-09T19:44:40.636Z,65.94
2018-02-09T19:47:08.096Z,65.98
2018-02-09T19:49:35.539Z,65.43
2018-02-09T19:52:02.996Z,65.90
2018-02-09T19:54:30.437Z,66.03
2018-02-09T19:56:57.893Z,66.07
2018-02-09T19:59:25.337Z,65.48
2018-02-09T20:01:52.785Z,66.19
2018-02-09T20:04:20.242Z,66.09
2018-02-09T20:06:47.735Z,65.35
2018-02-09T20:09:15.228Z,64.42
2018-02-09T20:11:42.737Z,65.25
2018-02-09T20:14:10.241Z,65.04
2018-02-09T20:16:37.696Z,64.93
2018-02-09T20:19:05.134Z,64.47
2018-02-09T20:21:32.656Z,65.12
2018-02-09T20:24:00.111Z,65.55
2018-02-09T20:26:27.565Z,65.04
2018-02-09T20:28:55.036Z,65.91
2018-02-09T20:31:22.534Z,65.34
2018-02-09T20:33:50.023Z,65.42
2018-02-09T20:36:17.533Z,65.36
2018-02-09T20:38:45.007Z,65.74
2018-02-09T20:41:12.669Z,65.75
2018-02-09T20:43:40.138Z,65.93
2018-02-09T20:46:07.562Z,65.73
2018-02-09T20:48:35.404Z,65.08
2018-02-09T20:51:02.840Z,65.66
2018-02-09T20:53:30.291Z,66.14
2018-02-09T20:55:57.757Z,65.94
2018-02-09T20:58:25.204Z,66.68
2018-02-09T21:00:52.660Z,66.56
2018-02-09T21:03:20.131Z,66.27
2018-02-09T21:05:47.588Z,65.87
2018-02-09T21:08:15.031Z,65.72
2018-02-09T21:10:42.473Z,66.06
2018-02-09T21:13:09.964Z,65.75
2018-02-09T21:15:37.406Z,65.43
2018-02-09T21:18:05.373Z,64.99
2018-02-09T21:20:33.877Z,65.49
2018-02-09T21:23:07.561Z,65.68
2018-02-09T21:25:35.415Z,66.70
2018-02-09T21:28:02.891Z,65.82
2018-02-09T21:30:30.357Z,66.17
2018-02-09T21:32:57.833Z,65.96
2018-02-09T21:35:25.284Z,66.31
2018-02-09T21:37:52.823Z,66.32
2018-02-09T21:40:20.360Z,66.40
2018-02-09T21:42:49.834Z,66.13
2018-02-09T21:45:17.339Z,66.00
2018-02-09T21:47:44.789Z,65.81
2018-02-09T21:50:12.239Z,65.60
2018-02-09T21:52:39.713Z,66.21
2018-02-09T21:55:07.181Z,66.13
2018-02-09T21:57:35.203Z,65.37
2018-02-09T22:00:02.809Z,64.68
2018-02-09T22:02:30.450Z,64.94
2018-02-09T22:04:58.037Z,66.09
2018-02-09T22:07:25.728Z,65.62
2018-02-09T22:09:54.441Z,65.68
2018-02-09T22:12:23.903Z,65.78
2018-02-09T22:14:51.425Z,65.88
2018-02-09T22:17:20.402Z,65.18
2018-02-09T22:19:48.574Z,65.31
2018-02-09T22:22:16.085Z,66.30
2018-02-09T22:24:43.784Z,65.54
2018-02-09T22:27:11.550Z,65.50
2018-02-09T22:29:39.213Z,65.13
2018-02-09T22:32:06.735Z,66.00
2018-02-09T22:34:35.295Z,66.10
2018-02-09T22:37:03.094Z,66.09
2018-02-09T22:39:30.593Z,66.28
2018-02-09T22:42:03.687Z,66.62
2018-02-09T22:44:31.255Z,65.73
2018-02-09T22:46:58.724Z,65.74
2018-02-09T22:49:26.161Z,65.80
2018-02-09T22:51:53.663Z,66.29
2018-02-09T22:54:21.253Z,65.75
2018-02-09T22:56:48.788Z,64.32
2018-02-09T22:59:16.333Z,65.45
2018-02-09T23:01:43.802Z,65.53
2018-02-09T23:04:11.253Z,65.95
2018-02-09T23:06:38.732Z,66.19
2018-02-09T23:09:06.165Z,65.91
2018-02-09T23:11:33.767Z,66.44
2018-02-09T23:14:01.397Z,66.14
2018-02-09T23:16:28.846Z,66.42
2018-02-09T23:18:56.309Z,66.39
2018-02-09T23:21:23.767Z,66.58
2018-02-09T23:23:51.240Z,65.58
2018-02-09T23:26:18.690Z,65.98
2018-02-09T23:28:46.137Z,65.24
2018-02-09T23:31:13.596Z,66.16
2018-02-09T23:33:41.174Z,65.64
2018-02-09T23:36:08.621Z,66.23
2018-02-09T23:38:36.148Z,66.06
2018-02-09T23:41:03.587Z,67.03
2018-02-09T23:43:31.070Z,66.17
2018-02-09T23:45:58.531Z,66.68
2018-02-09T23:48:26.009Z,66.36
2018-02-09T23:50:53.455Z,66.95
2018-02-09T23:53:20.920Z,66.83
